Karen C — 2DCC7 — position and weather

sailwx.info

Track history (hours):
 
Tides and Currents Weather Stations Pressure Air Temp Water Temp Dewpoint Dewpoint Depression Visibility Wind Speed Wind Dir Waves Ship Positions

Karen C

Last reported at 2017-Sep-23 23:28 UTC. Time now 2017-Sep-23 23:59 UTC.
Position N 52°28' E 004°36'.

Length 105 m; draft 4.8 m.

Type: Cargo ship. MMSI: 235077715.

Date/timePositionNaut miles runAvg speedWind from/ knotsBaromVisibWave heightAir tempDewpointWater temp
2017-Sep-23 23:28N 52°28' E 004°36'0 0.0
2017-Sep-23 22:58N 52°28' E 004°36'0 0.0
2017-Sep-23 22:22N 52°28' E 004°36'0 0.0
2017-Sep-23 21:58N 52°28' E 004°36'0 0.0
2017-Sep-23 21:28N 52°28' E 004°36'0 0.0
2017-Sep-23 20:58N 52°28' E 004°36'0 0.0
2017-Sep-23 20:28N 52°28' E 004°36'0 0.0
2017-Sep-23 19:43N 52°28' E 004°36'24 0.6
2017-Sep-22 01:56N 52°26' E 003°58'0 0.0
2017-Sep-22 01:29N 52°26' E 003°58'0 0.1
2017-Sep-22 00:56N 52°26' E 003°58'0 0.2
2017-Sep-22 00:26N 52°26' E 003°58'0 0.0
2017-Sep-21 23:56N 52°26' E 003°58'0 0.0
2017-Sep-21 23:26N 52°26' E 003°58'0 0.0
2017-Sep-21 22:59N 52°26' E 003°58'0 0.0
2017-Sep-21 22:29N 52°26' E 003°58'0 0.0
2017-Sep-21 21:56N 52°26' E 003°58'0 0.0
2017-Sep-21 21:26N 52°26' E 003°58'0 0.1
2017-Sep-21 20:50N 52°26' E 003°58'0 0.1
2017-Sep-21 18:53N 52°26' E 003°58'0 0.0
2017-Sep-21 18:05N 52°26' E 003°58'0 0.0
2017-Sep-21 17:38N 52°26' E 003°58'0 0.0
2017-Sep-21 17:29N 52°26' E 003°58'0 0.0
2017-Sep-21 16:38N 52°26' E 003°58'0 0.0
2017-Sep-21 16:17N 52°26' E 003°58'0 0.0
2017-Sep-21 15:50N 52°26' E 003°58'0 0.0
2017-Sep-21 13:08N 52°26' E 003°58'0 0.1
2017-Sep-21 12:50N 52°26' E 003°58'0 0.0
2017-Sep-21 12:29N 52°26' E 003°58'0 0.0
2017-Sep-21 10:44N 52°26' E 003°58'0 0.0
2017-Sep-21 10:26N 52°26' E 003°58'0 0.0
2017-Sep-21 09:59N 52°26' E 003°58'0 0.0
2017-Sep-21 09:26N 52°26' E 003°58'0 0.1
2017-Sep-21 08:53N 52°26' E 003°58'0 0.1
2017-Sep-21 07:23N 52°26' E 003°58'0 0.0
2017-Sep-21 06:47N 52°26' E 003°58'0 0.0
2017-Sep-21 05:20N 52°26' E 003°58'0 0.0
2017-Sep-21 04:53N 52°26' E 003°58'0 0.1
2017-Sep-21 04:26N 52°26' E 003°58'0 0.1
2017-Sep-21 03:59N 52°26' E 003°58'0 0.0
2017-Sep-21 02:47N 52°26' E 003°58'0 0.0
2017-Sep-21 02:29N 52°26' E 003°58'0 0.0
2017-Sep-21 01:56N 52°26' E 003°58'0 0.0
2017-Sep-21 00:59N 52°26' E 003°58'0 0.0
2017-Sep-21 00:26N 52°26' E 003°58'0 0.0
2017-Sep-20 23:59N 52°26' E 003°58'0 0.1
2017-Sep-20 22:08N 52°26' E 003°58'0 0.0
2017-Sep-20 20:38N 52°26' E 003°58'0 0.0
2017-Sep-19 23:35N 52°26' E 003°58'0 0.2
2017-Sep-19 23:17N 52°26' E 003°58'0 1.2
2017-Sep-19 23:00N 52°25' E 003°57'7 6.6
2017-Sep-19 22:01N 52°20' E 003°52'010.4
2017-Sep-19 22:00N 52°20' E 003°52'510.3
2017-Sep-19 21:30N 52°15' E 003°53'510.3
2017-Sep-19 21:00N 52°09' E 003°55'510.0
2017-Sep-19 20:31N 52°04' E 003°55'2 4.9
2017-Sep-19 20:00N 52°02' E 003°56'611.2
2017-Sep-19 19:30N 51°59' E 004°04'612.4
2017-Sep-19 19:00N 51°56' E 004°12'510.8
2017-Sep-19 18:30N 51°53' E 004°19'4 7.6
2017-Sep-19 18:00N 51°51' E 004°24'5 9.0
2017-Sep-19 17:30N 51°50' E 004°31'4 8.2
2017-Sep-19 17:01N 51°48' E 004°37'1 1.3
2017-Sep-19 16:26N 51°48' E 004°38'0 0.0
2017-Sep-19 15:59N 51°48' E 004°38'0 0.0
2017-Sep-19 15:29N 51°48' E 004°38'0 0.0
2017-Sep-19 14:53N 51°48' E 004°38'0 0.0
2017-Sep-19 14:29N 51°48' E 004°38'0 0.0
2017-Sep-19 13:59N 51°48' E 004°38'0 0.0
2017-Sep-19 13:29N 51°48' E 004°38'0 0.0
2017-Sep-19 12:59N 51°48' E 004°38'0 0.0
2017-Sep-19 12:23N 51°48' E 004°38'0 0.0
2017-Sep-19 11:59N 51°48' E 004°38'0 0.0
2017-Sep-19 11:17N 51°48' E 004°38'0 0.0
2017-Sep-19 10:53N 51°48' E 004°38'0 0.0
2017-Sep-19 10:29N 51°48' E 004°38'0 0.0
2017-Sep-19 09:59N 51°48' E 004°38'0 0.0
2017-Sep-19 09:29N 51°48' E 004°38'0 0.0
2017-Sep-19 08:59N 51°48' E 004°38'0 0.0
2017-Sep-19 08:23N 51°48' E 004°38'0 0.0
2017-Sep-19 07:59N 51°48' E 004°38'0 0.0
2017-Sep-19 07:29N 51°48' E 004°38'0 0.0
2017-Sep-19 06:56N 51°48' E 004°38'0 0.0
2017-Sep-19 06:29N 51°48' E 004°38'0 0.0
2017-Sep-19 05:59N 51°48' E 004°38'0 0.0
2017-Sep-19 05:29N 51°48' E 004°38'0 0.0
2017-Sep-19 04:59N 51°48' E 004°38'0 0.0
2017-Sep-19 04:26N 51°48' E 004°38'0 0.0
2017-Sep-19 03:56N 51°48' E 004°38'0 0.0
2017-Sep-19 03:29N 51°48' E 004°38'0 0.0
2017-Sep-19 02:59N 51°48' E 004°38'0 0.0
2017-Sep-19 02:29N 51°48' E 004°38'0 0.0
2017-Sep-19 01:56N 51°48' E 004°38'0 0.0
2017-Sep-19 01:29N 51°48' E 004°38'0 0.0
2017-Sep-19 00:59N 51°48' E 004°38'0 0.3
2017-Sep-19 00:30N 51°48' E 004°38'3 6.2
2017-Sep-19 00:00N 51°49' E 004°34'4 7.4
2017-Sep-18 23:30N 51°50' E 004°28'4 8.6
2017-Sep-18 23:01N 51°51' E 004°21'2 4.2
2017-Sep-18 22:30N 51°53' E 004°20'1 2.0
2017-Sep-18 22:00N 51°54' E 004°18'3 6.7
2017-Sep-18 21:30N 51°55' E 004°14'4 8.6
2017-Sep-18 21:00N 51°58' E 004°08'4 8.7
2017-Sep-18 20:30N 51°60' E 004°02'4 8.8
2017-Sep-18 20:00N 51°60' E 003°54'5 9.2
2017-Sep-18 19:30N 51°59' E 003°47'58 9.0
2017-Sep-18 13:00N 51°35' E 002°22'612.0
2017-Sep-18 12:30N 51°30' E 002°16'612.0
2017-Sep-18 12:00N 51°25' E 002°09'611.4
2017-Sep-18 11:31N 51°20' E 002°07'611.4
2017-Sep-18 11:00N 51°14' E 002°05'612.5
2017-Sep-18 10:30N 51°11' E 001°56'612.3
2017-Sep-18 10:00N 51°07' E 001°48'612.1
2017-Sep-18 09:30N 51°03' E 001°42'611.9
2017-Sep-18 09:00N 50°59' E 001°35'611.5
2017-Sep-18 08:30N 50°54' E 001°29'120 9.5
2017-Sep-17 19:50N 50°03' W 001°22'412.9
2017-Sep-17 19:31N 50°02' W 001°28'713.3
2017-Sep-17 19:00N 50°01' W 001°38'713.8
2017-Sep-17 18:31N 49°60' W 001°49'714.1
2017-Sep-17 18:00N 49°58' W 001°59'5212.2
2017-Sep-17 13:41N 49°39' W 003°15'210.7
2017-Sep-17 13:30N 49°38' W 003°18'  
2017-Sep-14 07:27N 39°15' W 009°50'4 9.8
2017-Sep-14 07:01N 39°11' W 009°50'510.0
2017-Sep-14 06:30N 39°06' W 009°50'5 9.3
2017-Sep-14 06:01N 39°02' W 009°50'5 9.8
2017-Sep-14 05:30N 38°57' W 009°50'510.0
2017-Sep-14 05:00N 38°52' W 009°50'5 9.7
2017-Sep-14 04:31N 38°47' W 009°50'5 9.2
2017-Sep-14 04:00N 38°42' W 009°50'5 9.2
2017-Sep-14 03:31N 38°38' W 009°49'5 9.0
2017-Sep-14 03:00N 38°34' W 009°45'5 9.4
2017-Sep-14 02:30N 38°31' W 009°41'5 9.9
2017-Sep-14 02:00N 38°27' W 009°37'5 9.7
2017-Sep-14 01:30N 38°24' W 009°32'5 9.6
2017-Sep-14 01:00N 38°21' W 009°28'510.0
2017-Sep-14 00:30N 38°17' W 009°23'510.2
2017-Sep-14 00:00N 38°14' W 009°18'510.1
2017-Sep-13 23:31N 38°10' W 009°13'  
Track history (hours):
 
Tides and Currents Weather Stations Pressure Air Temp Water Temp Dewpoint Dewpoint Depression Visibility Wind Speed Wind Dir Waves Ship Positions

Karen C

Last reported at 2017-Sep-23 23:28 UTC. Time now 2017-Sep-23 23:59 UTC.
Position N 52°28' E 004°36'.

Length 105 m; draft 4.8 m.

Type: Cargo ship. MMSI: 235077715.

Date/timePositionNaut miles runAvg speedWind from/ knotsBaromVisibWave heightAir tempDewpointWater temp
2017-Sep-23 23:28N 52°28' E 004°36'0 0.0
2017-Sep-23 22:58N 52°28' E 004°36'0 0.0
2017-Sep-23 22:22N 52°28' E 004°36'0 0.0
2017-Sep-23 21:58N 52°28' E 004°36'0 0.0
2017-Sep-23 21:28N 52°28' E 004°36'0 0.0
2017-Sep-23 20:58N 52°28' E 004°36'0 0.0
2017-Sep-23 20:28N 52°28' E 004°36'0 0.0
2017-Sep-23 19:43N 52°28' E 004°36'24 0.6
2017-Sep-22 01:56N 52°26' E 003°58'0 0.0
2017-Sep-22 01:29N 52°26' E 003°58'0 0.1
2017-Sep-22 00:56N 52°26' E 003°58'0 0.2
2017-Sep-22 00:26N 52°26' E 003°58'0 0.0
2017-Sep-21 23:56N 52°26' E 003°58'0 0.0
2017-Sep-21 23:26N 52°26' E 003°58'0 0.0
2017-Sep-21 22:59N 52°26' E 003°58'0 0.0
2017-Sep-21 22:29N 52°26' E 003°58'0 0.0
2017-Sep-21 21:56N 52°26' E 003°58'0 0.0
2017-Sep-21 21:26N 52°26' E 003°58'0 0.1
2017-Sep-21 20:50N 52°26' E 003°58'0 0.1
2017-Sep-21 18:53N 52°26' E 003°58'0 0.0
2017-Sep-21 18:05N 52°26' E 003°58'0 0.0
2017-Sep-21 17:38N 52°26' E 003°58'0 0.0
2017-Sep-21 17:29N 52°26' E 003°58'0 0.0
2017-Sep-21 16:38N 52°26' E 003°58'0 0.0
2017-Sep-21 16:17N 52°26' E 003°58'0 0.0
2017-Sep-21 15:50N 52°26' E 003°58'0 0.0
2017-Sep-21 13:08N 52°26' E 003°58'0 0.1
2017-Sep-21 12:50N 52°26' E 003°58'0 0.0
2017-Sep-21 12:29N 52°26' E 003°58'0 0.0
2017-Sep-21 10:44N 52°26' E 003°58'0 0.0
2017-Sep-21 10:26N 52°26' E 003°58'0 0.0
2017-Sep-21 09:59N 52°26' E 003°58'0 0.0
2017-Sep-21 09:26N 52°26' E 003°58'0 0.1
2017-Sep-21 08:53N 52°26' E 003°58'0 0.1
2017-Sep-21 07:23N 52°26' E 003°58'0 0.0
2017-Sep-21 06:47N 52°26' E 003°58'0 0.0
2017-Sep-21 05:20N 52°26' E 003°58'0 0.0
2017-Sep-21 04:53N 52°26' E 003°58'0 0.1
2017-Sep-21 04:26N 52°26' E 003°58'0 0.1
2017-Sep-21 03:59N 52°26' E 003°58'0 0.0
2017-Sep-21 02:47N 52°26' E 003°58'0 0.0
2017-Sep-21 02:29N 52°26' E 003°58'0 0.0
2017-Sep-21 01:56N 52°26' E 003°58'0 0.0
2017-Sep-21 00:59N 52°26' E 003°58'0 0.0
2017-Sep-21 00:26N 52°26' E 003°58'0 0.0
2017-Sep-20 23:59N 52°26' E 003°58'0 0.1
2017-Sep-20 22:08N 52°26' E 003°58'0 0.0
2017-Sep-20 20:38N 52°26' E 003°58'0 0.0
2017-Sep-19 23:35N 52°26' E 003°58'0 0.2
2017-Sep-19 23:17N 52°26' E 003°58'0 1.2
2017-Sep-19 23:00N 52°25' E 003°57'7 6.6
2017-Sep-19 22:01N 52°20' E 003°52'010.4
2017-Sep-19 22:00N 52°20' E 003°52'510.3
2017-Sep-19 21:30N 52°15' E 003°53'510.3
2017-Sep-19 21:00N 52°09' E 003°55'510.0
2017-Sep-19 20:31N 52°04' E 003°55'2 4.9
2017-Sep-19 20:00N 52°02' E 003°56'611.2
2017-Sep-19 19:30N 51°59' E 004°04'612.4
2017-Sep-19 19:00N 51°56' E 004°12'510.8
2017-Sep-19 18:30N 51°53' E 004°19'4 7.6
2017-Sep-19 18:00N 51°51' E 004°24'5 9.0
2017-Sep-19 17:30N 51°50' E 004°31'4 8.2
2017-Sep-19 17:01N 51°48' E 004°37'1 1.3
2017-Sep-19 16:26N 51°48' E 004°38'0 0.0
2017-Sep-19 15:59N 51°48' E 004°38'0 0.0
2017-Sep-19 15:29N 51°48' E 004°38'0 0.0
2017-Sep-19 14:53N 51°48' E 004°38'0 0.0
2017-Sep-19 14:29N 51°48' E 004°38'0 0.0
2017-Sep-19 13:59N 51°48' E 004°38'0 0.0
2017-Sep-19 13:29N 51°48' E 004°38'0 0.0
2017-Sep-19 12:59N 51°48' E 004°38'0 0.0
2017-Sep-19 12:23N 51°48' E 004°38'0 0.0
2017-Sep-19 11:59N 51°48' E 004°38'0 0.0
2017-Sep-19 11:17N 51°48' E 004°38'0 0.0
2017-Sep-19 10:53N 51°48' E 004°38'0 0.0
2017-Sep-19 10:29N 51°48' E 004°38'0 0.0
2017-Sep-19 09:59N 51°48' E 004°38'0 0.0
2017-Sep-19 09:29N 51°48' E 004°38'0 0.0
2017-Sep-19 08:59N 51°48' E 004°38'0 0.0
2017-Sep-19 08:23N 51°48' E 004°38'0 0.0
2017-Sep-19 07:59N 51°48' E 004°38'0 0.0
2017-Sep-19 07:29N 51°48' E 004°38'0 0.0
2017-Sep-19 06:56N 51°48' E 004°38'0 0.0
2017-Sep-19 06:29N 51°48' E 004°38'0 0.0
2017-Sep-19 05:59N 51°48' E 004°38'0 0.0
2017-Sep-19 05:29N 51°48' E 004°38'0 0.0
2017-Sep-19 04:59N 51°48' E 004°38'0 0.0
2017-Sep-19 04:26N 51°48' E 004°38'0 0.0
2017-Sep-19 03:56N 51°48' E 004°38'0 0.0
2017-Sep-19 03:29N 51°48' E 004°38'0 0.0
2017-Sep-19 02:59N 51°48' E 004°38'0 0.0
2017-Sep-19 02:29N 51°48' E 004°38'0 0.0
2017-Sep-19 01:56N 51°48' E 004°38'0 0.0
2017-Sep-19 01:29N 51°48' E 004°38'0 0.0
2017-Sep-19 00:59N 51°48' E 004°38'0 0.3
2017-Sep-19 00:30N 51°48' E 004°38'3 6.2
2017-Sep-19 00:00N 51°49' E 004°34'4 7.4
2017-Sep-18 23:30N 51°50' E 004°28'4 8.6
2017-Sep-18 23:01N 51°51' E 004°21'2 4.2
2017-Sep-18 22:30N 51°53' E 004°20'1 2.0
2017-Sep-18 22:00N 51°54' E 004°18'3 6.7
2017-Sep-18 21:30N 51°55' E 004°14'4 8.6
2017-Sep-18 21:00N 51°58' E 004°08'4 8.7
2017-Sep-18 20:30N 51°60' E 004°02'4 8.8
2017-Sep-18 20:00N 51°60' E 003°54'5 9.2
2017-Sep-18 19:30N 51°59' E 003°47'58 9.0
2017-Sep-18 13:00N 51°35' E 002°22'612.0
2017-Sep-18 12:30N 51°30' E 002°16'612.0
2017-Sep-18 12:00N 51°25' E 002°09'611.4
2017-Sep-18 11:31N 51°20' E 002°07'611.4
2017-Sep-18 11:00N 51°14' E 002°05'612.5
2017-Sep-18 10:30N 51°11' E 001°56'612.3
2017-Sep-18 10:00N 51°07' E 001°48'612.1
2017-Sep-18 09:30N 51°03' E 001°42'611.9
2017-Sep-18 09:00N 50°59' E 001°35'611.5
2017-Sep-18 08:30N 50°54' E 001°29'120 9.5
2017-Sep-17 19:50N 50°03' W 001°22'412.9
2017-Sep-17 19:31N 50°02' W 001°28'713.3
2017-Sep-17 19:00N 50°01' W 001°38'713.8
2017-Sep-17 18:31N 49°60' W 001°49'714.1
2017-Sep-17 18:00N 49°58' W 001°59'5212.2
2017-Sep-17 13:41N 49°39' W 003°15'210.7
2017-Sep-17 13:30N 49°38' W 003°18'  
2017-Sep-14 07:27N 39°15' W 009°50'4 9.8
2017-Sep-14 07:01N 39°11' W 009°50'510.0
2017-Sep-14 06:30N 39°06' W 009°50'5 9.3
2017-Sep-14 06:01N 39°02' W 009°50'5 9.8
2017-Sep-14 05:30N 38°57' W 009°50'510.0
2017-Sep-14 05:00N 38°52' W 009°50'5 9.7
2017-Sep-14 04:31N 38°47' W 009°50'5 9.2
2017-Sep-14 04:00N 38°42' W 009°50'5 9.2
2017-Sep-14 03:31N 38°38' W 009°49'5 9.0
2017-Sep-14 03:00N 38°34' W 009°45'5 9.4
2017-Sep-14 02:30N 38°31' W 009°41'5 9.9
2017-Sep-14 02:00N 38°27' W 009°37'5 9.7
2017-Sep-14 01:30N 38°24' W 009°32'5 9.6
2017-Sep-14 01:00N 38°21' W 009°28'510.0
2017-Sep-14 00:30N 38°17' W 009°23'510.2
2017-Sep-14 00:00N 38°14' W 009°18'510.1
2017-Sep-13 23:31N 38°10' W 009°13'  

Dump ship's entire track history